createdAt,value
2022-07-29T00:05:00.653Z,14.5
2022-07-29T00:10:35.592Z,14.5
2022-07-29T00:16:12.342Z,14.4
2022-07-29T00:21:45.146Z,14.4
2022-07-29T00:27:20.684Z,14.3
2022-07-29T00:39:37.270Z,14.1
2022-07-29T00:46:19.503Z,14
2022-07-29T00:51:54.410Z,14
2022-07-29T00:57:29.368Z,13.9
2022-07-29T01:03:04.709Z,13.9
2022-07-29T01:08:39.459Z,13.8
2022-07-29T01:14:14.755Z,13.7
2022-07-29T01:19:49.434Z,13.6
2022-07-29T01:25:24.399Z,13.4
2022-07-29T01:30:59.576Z,13.3
2022-07-29T01:36:34.414Z,13.2
2022-07-29T01:42:09.470Z,13
2022-07-29T01:47:44.469Z,13
2022-07-29T01:53:19.420Z,12.9
2022-07-29T01:58:54.537Z,12.9
2022-07-29T02:04:30.328Z,12.7
2022-07-29T02:10:04.460Z,12.7
2022-07-29T02:15:39.497Z,12.5
2022-07-29T02:21:15.177Z,12.5
2022-07-29T02:26:49.508Z,12.4
2022-07-29T02:32:24.470Z,12.3
2022-07-29T02:37:59.549Z,12.3
2022-07-29T02:43:34.557Z,12.3
2022-07-29T02:50:16.155Z,12.2
2022-07-29T02:55:51.196Z,12.2
2022-07-29T03:01:26.210Z,12.1
2022-07-29T03:07:01.114Z,12.1
2022-07-29T03:12:36.201Z,12.1
2022-07-29T03:19:18.266Z,12.1
2022-07-29T03:24:53.270Z,12
2022-07-29T03:31:35.359Z,11.9
2022-07-29T03:37:10.406Z,11.8
2022-07-29T03:42:45.439Z,11.8
2022-07-29T03:48:20.442Z,11.7
2022-07-29T03:53:55.458Z,11.6
2022-07-29T03:59:30.442Z,11.5
2022-07-29T04:05:05.439Z,11.5
2022-07-29T04:10:42.217Z,11.6
2022-07-29T04:16:15.621Z,11.5
2022-07-29T04:23:00.023Z,11.5
2022-07-29T04:28:32.590Z,11.6
2022-07-29T04:35:14.184Z,11.6
2022-07-29T04:40:49.823Z,11.6
2022-07-29T04:46:24.233Z,11.6
2022-07-29T04:51:59.357Z,11.7
2022-07-29T04:57:34.238Z,11.8
2022-07-29T05:03:09.526Z,11.8
2022-07-29T05:08:45.969Z,11.8
2022-07-29T05:14:19.618Z,11.9
2022-07-29T05:19:54.357Z,12
2022-07-29T05:26:36.345Z,12
2022-07-29T05:32:11.355Z,12.1
2022-07-29T05:37:46.330Z,12.2
2022-07-29T05:43:21.303Z,12.5
2022-07-29T05:48:56.424Z,12.7
2022-07-29T05:54:31.324Z,12.8
2022-07-29T06:00:06.430Z,12.9
2022-07-29T06:05:41.336Z,13.1
2022-07-29T06:11:16.414Z,13.2
2022-07-29T06:16:51.469Z,13.3
2022-07-29T06:22:26.437Z,13.5
2022-07-29T06:28:01.427Z,13.6
2022-07-29T06:33:36.389Z,13.6
2022-07-29T06:39:20.422Z,13.7
2022-07-29T06:44:46.526Z,14.2
2022-07-29T06:50:21.563Z,15.3
2022-07-29T06:55:56.503Z,16.6
2022-07-29T07:01:31.633Z,17.5
2022-07-29T07:07:07.467Z,18.4
2022-07-29T07:12:41.434Z,19.1
2022-07-29T07:18:16.538Z,19.8
2022-07-29T07:23:51.507Z,20.5
2022-07-29T07:29:25.977Z,20.9
2022-07-29T07:35:02.092Z,21.3
2022-07-29T07:40:36.286Z,21.9
2022-07-29T07:46:12.269Z,22.4
2022-07-29T07:51:50.522Z,23
2022-07-29T07:57:21.054Z,23.4
2022-07-29T08:04:03.242Z,23.8
2022-07-29T08:09:38.221Z,23.9
2022-07-29T08:15:13.194Z,23.8
2022-07-29T08:20:48.248Z,23.8
2022-07-29T08:26:23.175Z,23.7
2022-07-29T08:31:58.294Z,23.5
2022-07-29T08:37:34.722Z,23.5
2022-07-29T08:43:08.251Z,23.5
2022-07-29T08:48:43.506Z,23.5
2022-07-29T08:54:18.333Z,22.4
2022-07-29T08:59:53.233Z,22.6
2022-07-29T09:05:28.315Z,22.5
2022-07-29T09:11:04.070Z,22
2022-07-29T09:16:52.731Z,22
2022-07-29T09:22:13.181Z,21.9
2022-07-29T09:27:48.302Z,21.9
2022-07-29T09:33:23.742Z,22.3
2022-07-29T09:38:58.300Z,21.8
2022-07-29T09:44:33.212Z,21.4
2022-07-29T09:50:08.262Z,20.9
2022-07-29T09:55:43.321Z,20.8
2022-07-29T10:01:19.010Z,21.1
2022-07-29T10:06:53.286Z,21.8
2022-07-29T10:12:28.625Z,22.4
2022-07-29T10:18:03.345Z,22
2022-07-29T10:24:45.024Z,22.4
2022-07-29T10:30:19.946Z,22.8
2022-07-29T10:35:55.166Z,22.5
2022-07-29T10:41:32.439Z,22.5
2022-07-29T10:47:05.047Z,22.6
2022-07-29T10:52:39.982Z,22.7
2022-07-29T10:58:14.993Z,22.7
2022-07-29T11:03:52.197Z,22.9
2022-07-29T11:09:25.926Z,22.7
2022-07-29T11:15:00.063Z,22.7
2022-07-29T11:20:35.021Z,22.6
2022-07-29T11:26:12.737Z,22.6
2022-07-29T11:31:44.967Z,22.6
2022-07-29T11:37:20.238Z,22.6
2022-07-29T11:42:55.226Z,22.7
2022-07-29T11:48:32.067Z,22.9
2022-07-29T11:54:05.161Z,22.6
2022-07-29T11:59:40.495Z,22.7
2022-07-29T12:05:23.984Z,22.5
2022-07-29T12:10:50.122Z,22.5
2022-07-29T12:16:29.710Z,22.3
2022-07-29T12:22:02.143Z,22.1
2022-07-29T12:28:42.197Z,22.1
2022-07-29T12:34:17.181Z,22.3
2022-07-29T12:39:52.130Z,22.3
2022-07-29T12:45:27.766Z,22.5
2022-07-29T12:52:08.798Z,22.3
2022-07-29T12:57:43.867Z,22.2
2022-07-29T13:03:18.789Z,22.2
2022-07-29T13:08:53.911Z,22.2
2022-07-29T13:14:28.867Z,22.2
2022-07-29T13:20:04.063Z,22.3
2022-07-29T13:25:38.880Z,22.4
2022-07-29T13:31:13.899Z,22.2
2022-07-29T13:36:48.874Z,22.3
2022-07-29T13:42:23.819Z,22.2
2022-07-29T13:47:58.830Z,21.9
2022-07-29T13:53:33.868Z,21.7
2022-07-29T13:59:08.899Z,21.7
2022-07-29T14:04:44.018Z,21.9
2022-07-29T14:10:20.293Z,21.9
2022-07-29T14:15:53.913Z,22.1
2022-07-29T14:21:28.990Z,22
2022-07-29T14:27:04.011Z,21.9
2022-07-29T14:32:38.974Z,21.9
2022-07-29T14:38:13.953Z,21.8
2022-07-29T14:43:49.007Z,21.8
2022-07-29T14:49:24.542Z,21.8
2022-07-29T14:54:58.983Z,21.8
2022-07-29T15:00:38.010Z,21.7
2022-07-29T15:06:12.541Z,21.6
2022-07-29T15:11:44.007Z,21.5
2022-07-29T15:17:19.050Z,21.6
2022-07-29T15:22:53.996Z,21.6
2022-07-29T15:28:28.954Z,21.8
2022-07-29T15:34:05.909Z,21.8
2022-07-29T15:39:39.017Z,21.6
2022-07-29T15:45:13.974Z,21.5
2022-07-29T15:50:48.960Z,21.6
2022-07-29T15:56:23.981Z,21.5
2022-07-29T16:03:05.663Z,21.2
2022-07-29T16:08:40.566Z,21.1
2022-07-29T16:14:15.595Z,20.9
2022-07-29T16:19:50.691Z,20.6
2022-07-29T16:25:49.990Z,20.5
2022-07-29T16:31:00.656Z,20.6
2022-07-29T16:36:35.729Z,20.5
2022-07-29T16:42:21.246Z,20.4
2022-07-29T16:48:53.013Z,20.3
2022-07-29T16:54:27.838Z,20
2022-07-29T17:00:02.863Z,19.7
2022-07-29T17:06:44.925Z,19.9
2022-07-29T17:12:19.959Z,19.9
2022-07-29T17:17:56.772Z,19.9
2022-07-29T17:23:29.993Z,19.9
2022-07-29T17:29:04.992Z,19.9
2022-07-29T17:35:48.689Z,19.6
2022-07-29T17:41:22.615Z,19.4
2022-07-29T17:46:56.966Z,19.3
2022-07-29T17:52:32.717Z,19.3
2022-07-29T17:58:07.044Z,19.2
2022-07-29T18:03:41.585Z,19.2
2022-07-29T18:10:23.704Z,19.1
2022-07-29T18:17:05.829Z,18.9
2022-07-29T18:22:40.809Z,18.8
2022-07-29T18:28:15.857Z,18.7
2022-07-29T18:33:52.204Z,18.6
2022-07-29T18:39:25.846Z,18.6
2022-07-29T18:45:02.072Z,18.5
2022-07-29T18:50:35.837Z,18.5
2022-07-29T18:56:12.637Z,18.5
2022-07-29T19:01:46.005Z,18.4
2022-07-29T19:07:20.891Z,18.3
2022-07-29T19:14:02.993Z,18.3
2022-07-29T19:19:38.035Z,18.3
2022-07-29T19:25:12.631Z,18.3
2022-07-29T19:30:47.595Z,18.2
2022-07-29T19:36:22.517Z,18.2
2022-07-29T19:42:01.618Z,18.2
2022-07-29T19:47:32.706Z,18.1
2022-07-29T19:53:07.564Z,18.1
2022-07-29T19:58:42.564Z,18
2022-07-29T20:04:17.690Z,17.9
2022-07-29T20:09:52.548Z,18
2022-07-29T20:15:27.574Z,18
2022-07-29T20:21:03.579Z,17.9
2022-07-29T20:26:37.574Z,17.9
2022-07-29T20:32:12.546Z,17.9
2022-07-29T20:37:52.564Z,17.9
2022-07-29T20:43:22.561Z,17.6
2022-07-29T20:48:57.735Z,17.4
2022-07-29T20:54:32.631Z,17.4
2022-07-29T21:00:07.617Z,17.3
2022-07-29T21:05:42.874Z,17.2
2022-07-29T21:11:17.627Z,17.1
2022-07-29T21:16:52.638Z,17.1
2022-07-29T21:22:27.737Z,17
2022-07-29T21:28:02.568Z,17
2022-07-29T21:33:37.590Z,17
2022-07-29T21:39:12.588Z,17.1
2022-07-29T21:44:47.730Z,17.1
2022-07-29T21:50:22.601Z,17.1
2022-07-29T21:55:57.633Z,17.2
2022-07-29T22:01:39.089Z,17.2
2022-07-29T22:07:07.672Z,17.4
2022-07-29T22:12:42.684Z,17.4
2022-07-29T22:18:21.018Z,17.4
2022-07-29T22:24:59.817Z,17.3
2022-07-29T22:30:34.876Z,17.1
2022-07-29T22:36:12.643Z,16.9
2022-07-29T22:41:44.879Z,16.7
2022-07-29T22:47:45.711Z,16.6
2022-07-29T22:52:54.825Z,16.6
2022-07-29T22:58:29.870Z,16.5
2022-07-29T23:04:04.518Z,16.4
2022-07-29T23:09:39.283Z,16.4
2022-07-29T23:15:14.381Z,16.4
2022-07-29T23:20:49.422Z,16.4
2022-07-29T23:26:24.474Z,16.4
2022-07-29T23:31:59.313Z,16.4
2022-07-29T23:37:34.378Z,16.4
2022-07-29T23:43:09.425Z,16.3
2022-07-29T23:48:44.502Z,16.3
2022-07-29T23:54:19.386Z,16.2
2022-07-29T23:59:54.416Z,16.2
